EZY12HY LEIB-EGGD
Flight info
| Callsign | EZY12HY |
|---|---|
| Flight time | N/A |
| Altitude | 34000 |
| Route | EPAMA N856 UMURE DCT XIKEN DCT KARES DCT ARBEK DCT REBUL DCT USKAR DCT MOPAS DCT GIROM DCT AGN DCT SECHE DCT UVELI DCT CNA DCT MANAK DCT MUREL/N0405F300 DCT NOZHU/N0401F290 DCT SHIRI DCT TOJAQ |
| Aircraft | A320/M-SDE3FGHIRWY/LB1 |
Departure
| Time | 2026-05-04 13:38 |
|---|---|
| Airport | Ibiza Airport (LEIB) |
Arrival
| Time | N/A |
|---|---|
| Airport | Bristol Airport (EGGD) |
| Time | Latitude | Longitude | Altitude | Speed | Heading |
|---|---|---|---|---|---|
| 2026-05-04 12:51 | 38.87563 | 1.36918 | 8 ft | 0 kts | 332° |
| 2026-05-04 13:27 | 38.87556 | 1.36923 | 9 ft | 4 kts | 332° |
| 2026-05-04 13:27 | 38.87532 | 1.36939 | 9 ft | 4 kts | 332° |
| 2026-05-04 13:28 | 38.87513 | 1.36951 | 8 ft | 4 kts | 352° |
| 2026-05-04 13:28 | 38.87496 | 1.36942 | 12 ft | 4 kts | 61° |
| 2026-05-04 13:28 | 38.87486 | 1.36919 | 11 ft | 0 kts | 62° |
| 2026-05-04 13:28 | 38.87486 | 1.36918 | 11 ft | 0 kts | 62° |
| 2026-05-04 13:30 | 38.87486 | 1.36919 | 11 ft | 0 kts | 62° |
| 2026-05-04 13:31 | 38.87501 | 1.36955 | 8 ft | 9 kts | 62° |
| 2026-05-04 13:31 | 38.87545 | 1.37062 | 8 ft | 18 kts | 63° |
| 2026-05-04 13:31 | 38.87609 | 1.37211 | 8 ft | 18 kts | 61° |
| 2026-05-04 13:31 | 38.87665 | 1.37349 | 9 ft | 17 kts | 63° |
| 2026-05-04 13:32 | 38.87691 | 1.37476 | 8 ft | 14 kts | 110° |
| 2026-05-04 13:32 | 38.87616 | 1.37535 | 8 ft | 13 kts | 158° |
| 2026-05-04 13:32 | 38.87601 | 1.37618 | 9 ft | 10 kts | 60° |
| 2026-05-04 13:32 | 38.87629 | 1.37695 | 9 ft | 9 kts | 65° |
| 2026-05-04 13:33 | 38.87656 | 1.37760 | 9 ft | 10 kts | 62° |
| 2026-05-04 13:33 | 38.87712 | 1.37893 | 9 ft | 21 kts | 59° |
| 2026-05-04 13:33 | 38.87788 | 1.38058 | 9 ft | 22 kts | 57° |
| 2026-05-04 13:33 | 38.87850 | 1.38225 | 9 ft | 21 kts | 63° |
| 2026-05-04 13:34 | 38.87922 | 1.38397 | 9 ft | 22 kts | 63° |
| 2026-05-04 13:34 | 38.87988 | 1.38560 | 9 ft | 20 kts | 62° |
| 2026-05-04 13:34 | 38.88012 | 1.38694 | 9 ft | 13 kts | 140° |
| 2026-05-04 13:34 | 38.87991 | 1.38711 | 10 ft | 0 kts | 152° |
| 2026-05-04 13:36 | 38.87959 | 1.38723 | 10 ft | 11 kts | 174° |
| 2026-05-04 13:36 | 38.87864 | 1.38687 | 11 ft | 16 kts | 205° |
| 2026-05-04 13:37 | 38.87805 | 1.38572 | 12 ft | 16 kts | 242° |
| 2026-05-04 13:37 | 38.87686 | 1.38284 | 13 ft | 70 kts | 242° |
| 2026-05-04 13:37 | 38.87356 | 1.37488 | 10 ft | 129 kts | 242° |
| 2026-05-04 13:37 | 38.87036 | 1.36738 | 35 ft | 158 kts | 239° |
| 2026-05-04 13:38 | 38.86524 | 1.35468 | 646 ft | 158 kts | 242° |
| 2026-05-04 13:38 | 38.86042 | 1.34203 | 1313 ft | 160 kts | 241° |
| 2026-05-04 13:38 | 38.85529 | 1.32855 | 1691 ft | 178 kts | 242° |
| 2026-05-04 13:38 | 38.84945 | 1.31348 | 2164 ft | 194 kts | 243° |
| 2026-05-04 13:39 | 38.84344 | 1.29806 | 2886 ft | 197 kts | 242° |
| 2026-05-04 13:39 | 38.83723 | 1.28218 | 3619 ft | 200 kts | 242° |
| 2026-05-04 13:39 | 38.83178 | 1.26572 | 4417 ft | 203 kts | 258° |
| 2026-05-04 13:39 | 38.83373 | 1.24771 | 5147 ft | 218 kts | 291° |
| 2026-05-04 13:40 | 38.84453 | 1.23231 | 5572 ft | 245 kts | 315° |
| 2026-05-04 13:40 | 38.85842 | 1.21890 | 6267 ft | 253 kts | 319° |
| 2026-05-04 13:40 | 38.87288 | 1.20607 | 6981 ft | 257 kts | 320° |
| 2026-05-04 13:40 | 38.88775 | 1.19303 | 7744 ft | 260 kts | 321° |
| 2026-05-04 13:41 | 38.90269 | 1.17980 | 8515 ft | 262 kts | 320° |
| 2026-05-04 13:41 | 38.91865 | 1.16786 | 9284 ft | 271 kts | 333° |
| 2026-05-04 13:41 | 38.93749 | 1.16240 | 9977 ft | 286 kts | 352° |
| 2026-05-04 13:42 | 38.97998 | 1.17236 | 10468 ft | 338 kts | 11° |
| 2026-05-04 13:42 | 39.00335 | 1.18017 | 10778 ft | 355 kts | 11° |
| 2026-05-04 13:42 | 39.02751 | 1.18831 | 11409 ft | 361 kts | 11° |
| 2026-05-04 13:42 | 39.05193 | 1.19655 | 12103 ft | 364 kts | 11° |
| 2026-05-04 13:43 | 39.07666 | 1.20483 | 12802 ft | 368 kts | 11° |
| 2026-05-04 13:43 | 39.10162 | 1.21310 | 13503 ft | 371 kts | 11° |
| 2026-05-04 13:43 | 39.12649 | 1.22131 | 14124 ft | 374 kts | 10° |
| 2026-05-04 13:43 | 39.15185 | 1.22969 | 14696 ft | 378 kts | 10° |
| 2026-05-04 13:44 | 39.17760 | 1.23822 | 15274 ft | 382 kts | 10° |
| 2026-05-04 13:44 | 39.20344 | 1.24680 | 15845 ft | 386 kts | 10° |
| 2026-05-04 13:44 | 39.22971 | 1.25555 | 16424 ft | 389 kts | 9° |
| 2026-05-04 13:44 | 39.25580 | 1.26421 | 16983 ft | 393 kts | 9° |
| 2026-05-04 13:45 | 39.28251 | 1.27307 | 17551 ft | 397 kts | 9° |
| 2026-05-04 13:45 | 39.30948 | 1.28204 | 18110 ft | 401 kts | 9° |
| 2026-05-04 13:45 | 39.33641 | 1.29100 | 18585 ft | 404 kts | 9° |
| 2026-05-04 13:45 | 39.36382 | 1.30014 | 19068 ft | 408 kts | 9° |
| 2026-05-04 13:46 | 39.39154 | 1.30942 | 19526 ft | 412 kts | 9° |
| 2026-05-04 13:46 | 39.41955 | 1.31882 | 19976 ft | 416 kts | 9° |
| 2026-05-04 13:46 | 39.44753 | 1.32819 | 20417 ft | 420 kts | 9° |
| 2026-05-04 13:46 | 39.47604 | 1.33774 | 20855 ft | 424 kts | 9° |
| 2026-05-04 13:47 | 39.50486 | 1.34737 | 21288 ft | 428 kts | 9° |
| 2026-05-04 13:47 | 39.53357 | 1.35696 | 21703 ft | 432 kts | 9° |
| 2026-05-04 13:47 | 39.56276 | 1.36675 | 22120 ft | 436 kts | 9° |
| 2026-05-04 13:47 | 39.59249 | 1.37493 | 22565 ft | 434 kts | 1° |
| 2026-05-04 13:48 | 39.62260 | 1.37719 | 22977 ft | 430 kts | 352° |
| 2026-05-04 13:48 | 39.65232 | 1.37406 | 23381 ft | 429 kts | 347° |
| 2026-05-04 13:48 | 39.68218 | 1.37002 | 23743 ft | 432 kts | 347° |
| 2026-05-04 13:48 | 39.71222 | 1.36597 | 24093 ft | 435 kts | 347° |
| 2026-05-04 13:49 | 39.74205 | 1.36197 | 24439 ft | 438 kts | 347° |
| 2026-05-04 13:49 | 39.77251 | 1.35790 | 24790 ft | 440 kts | 347° |
| 2026-05-04 13:49 | 39.80308 | 1.35384 | 25150 ft | 443 kts | 347° |
| 2026-05-04 13:49 | 39.83386 | 1.34977 | 25483 ft | 445 kts | 347° |
| 2026-05-04 13:50 | 39.86484 | 1.34568 | 25815 ft | 448 kts | 347° |
| 2026-05-04 13:50 | 39.89584 | 1.34156 | 26142 ft | 450 kts | 347° |
| 2026-05-04 13:50 | 39.92729 | 1.33736 | 26472 ft | 453 kts | 347° |
| 2026-05-04 13:50 | 39.95838 | 1.33321 | 26787 ft | 455 kts | 347° |
| 2026-05-04 13:51 | 39.99005 | 1.32897 | 27120 ft | 458 kts | 347° |
| 2026-05-04 13:51 | 40.02184 | 1.32474 | 27430 ft | 460 kts | 347° |
| 2026-05-04 13:51 | 40.05382 | 1.32044 | 27751 ft | 463 kts | 347° |
| 2026-05-04 13:51 | 40.08610 | 1.31610 | 28053 ft | 466 kts | 347° |
| 2026-05-04 13:52 | 40.15068 | 1.30738 | 28656 ft | 470 kts | 347° |
| 2026-05-04 13:52 | 40.18338 | 1.30298 | 28955 ft | 473 kts | 347° |
| 2026-05-04 13:52 | 40.21626 | 1.29852 | 29246 ft | 475 kts | 347° |
| 2026-05-04 13:53 | 40.24923 | 1.29410 | 29563 ft | 478 kts | 347° |
| 2026-05-04 13:53 | 40.28218 | 1.28972 | 29804 ft | 481 kts | 347° |
| 2026-05-04 13:53 | 40.31567 | 1.28523 | 30048 ft | 483 kts | 347° |
| 2026-05-04 13:54 | 40.38290 | 1.27615 | 30494 ft | 487 kts | 347° |
| 2026-05-04 13:54 | 40.41668 | 1.27156 | 30727 ft | 489 kts | 347° |
| 2026-05-04 13:54 | 40.48421 | 1.26239 | 31349 ft | 489 kts | 347° |
| 2026-05-04 13:55 | 40.51829 | 1.25776 | 31672 ft | 489 kts | 347° |
| 2026-05-04 13:55 | 40.58594 | 1.24854 | 32287 ft | 488 kts | 347° |
| 2026-05-04 13:55 | 40.61978 | 1.24394 | 32593 ft | 488 kts | 347° |
| 2026-05-04 13:56 | 40.65312 | 1.23943 | 32887 ft | 487 kts | 347° |
| 2026-05-04 13:56 | 40.68688 | 1.23485 | 33196 ft | 487 kts | 347° |
| 2026-05-04 13:56 | 40.75439 | 1.22566 | 33820 ft | 486 kts | 347° |
| 2026-05-04 13:57 | 40.78807 | 1.22104 | 33920 ft | 483 kts | 347° |
| 2026-05-04 13:58 | 40.91991 | 1.20296 | 33955 ft | 475 kts | 347° |
| 2026-05-04 13:58 | 41.01865 | 1.18932 | 33946 ft | 474 kts | 347° |
| 2026-05-04 13:59 | 41.08443 | 1.18023 | 33947 ft | 474 kts | 347° |
| 2026-05-04 14:00 | 41.18290 | 1.16687 | 33950 ft | 479 kts | 348° |
| 2026-05-04 14:00 | 41.25034 | 1.15981 | 33947 ft | 493 kts | 349° |
| 2026-05-04 14:00 | 41.28448 | 1.15656 | 33943 ft | 499 kts | 349° |
| 2026-05-04 14:01 | 41.35478 | 1.14977 | 33954 ft | 508 kts | 349° |
| 2026-05-04 14:02 | 41.46051 | 1.13870 | 33925 ft | 509 kts | 349° |
| 2026-05-04 14:02 | 41.53127 | 1.13113 | 33914 ft | 509 kts | 349° |
| 2026-05-04 14:03 | 41.60176 | 1.12373 | 33921 ft | 510 kts | 349° |
| 2026-05-04 14:03 | 41.67269 | 1.11629 | 33923 ft | 511 kts | 349° |
| 2026-05-04 14:04 | 41.77876 | 1.10502 | 33967 ft | 511 kts | 349° |
| 2026-05-04 14:04 | 41.84988 | 1.09736 | 33948 ft | 512 kts | 349° |
| 2026-05-04 14:05 | 41.95643 | 1.08600 | 33951 ft | 513 kts | 349° |
| 2026-05-04 14:06 | 42.02776 | 1.07841 | 33956 ft | 514 kts | 349° |
| 2026-05-04 14:06 | 42.09878 | 1.07076 | 33942 ft | 514 kts | 349° |
| 2026-05-04 14:07 | 42.17024 | 1.06304 | 33932 ft | 515 kts | 349° |
| 2026-05-04 14:07 | 42.24166 | 1.05532 | 33936 ft | 515 kts | 349° |
| 2026-05-04 14:08 | 42.31313 | 1.04757 | 33944 ft | 514 kts | 349° |
| 2026-05-04 14:08 | 42.38415 | 1.03979 | 33937 ft | 514 kts | 349° |
| 2026-05-04 14:09 | 42.49079 | 1.02810 | 33937 ft | 514 kts | 349° |
| 2026-05-04 14:10 | 42.59750 | 1.01656 | 33931 ft | 513 kts | 349° |
| 2026-05-04 14:10 | 42.66877 | 1.00886 | 33936 ft | 512 kts | 350° |
| 2026-05-04 14:11 | 42.74014 | 1.00120 | 33928 ft | 513 kts | 350° |
| 2026-05-04 14:11 | 42.84660 | 0.98944 | 33923 ft | 512 kts | 350° |
| 2026-05-04 14:12 | 42.91733 | 0.98156 | 33924 ft | 511 kts | 349° |
| 2026-05-04 14:13 | 43.02402 | 0.96988 | 33920 ft | 511 kts | 350° |
| 2026-05-04 14:13 | 43.09474 | 0.96211 | 33926 ft | 511 kts | 350° |
| 2026-05-04 14:14 | 43.16563 | 0.95416 | 33933 ft | 510 kts | 350° |
| 2026-05-04 14:14 | 43.26812 | 0.94276 | 33934 ft | 510 kts | 351° |
| 2026-05-04 14:15 | 43.40935 | 0.92684 | 33922 ft | 510 kts | 351° |
| 2026-05-04 14:16 | 43.51523 | 0.91484 | 33932 ft | 510 kts | 351° |
| 2026-05-04 14:17 | 43.62156 | 0.90295 | 33943 ft | 512 kts | 351° |
| 2026-05-04 14:18 | 43.72773 | 0.89105 | 33914 ft | 510 kts | 352° |
| 2026-05-04 14:19 | 43.86926 | 0.87363 | 33924 ft | 507 kts | 345° |
| 2026-05-04 14:19 | 43.93476 | 0.84306 | 33920 ft | 496 kts | 329° |
| 2026-05-04 14:20 | 43.99750 | 0.80234 | 33915 ft | 497 kts | 329° |
| 2026-05-04 14:20 | 44.06033 | 0.76181 | 33967 ft | 498 kts | 330° |
| 2026-05-04 14:21 | 44.15467 | 0.70077 | 33929 ft | 500 kts | 330° |
| 2026-05-04 14:21 | 44.21770 | 0.65980 | 33927 ft | 501 kts | 330° |
| 2026-05-04 14:22 | 44.28080 | 0.61864 | 33932 ft | 502 kts | 330° |
| 2026-05-04 14:22 | 44.34431 | 0.57713 | 33915 ft | 502 kts | 330° |
| 2026-05-04 14:23 | 44.43915 | 0.51506 | 33929 ft | 503 kts | 330° |
| 2026-05-04 14:24 | 44.50252 | 0.47327 | 33921 ft | 502 kts | 329° |
| 2026-05-04 14:24 | 44.56535 | 0.43144 | 33916 ft | 502 kts | 329° |
| 2026-05-04 14:25 | 44.62865 | 0.38921 | 33928 ft | 503 kts | 329° |
| 2026-05-04 14:25 | 44.72296 | 0.32630 | 33949 ft | 500 kts | 330° |
| 2026-05-04 14:26 | 44.77556 | 0.29114 | 33943 ft | 498 kts | 330° |
| 2026-05-04 14:26 | 44.83785 | 0.24939 | 33936 ft | 497 kts | 330° |
| 2026-05-04 14:27 | 44.90040 | 0.20741 | 33931 ft | 497 kts | 330° |
| 2026-05-04 14:27 | 44.96257 | 0.16548 | 33923 ft | 496 kts | 330° |
| 2026-05-04 14:28 | 45.02463 | 0.12338 | 33930 ft | 496 kts | 330° |
| 2026-05-04 14:28 | 45.08704 | 0.08112 | 33922 ft | 497 kts | 330° |
| 2026-05-04 14:29 | 45.21161 | -0.00345 | 33930 ft | 497 kts | 330° |
| 2026-05-04 14:30 | 45.27407 | -0.04610 | 33949 ft | 496 kts | 330° |
| 2026-05-04 14:31 | 45.36744 | -0.11004 | 33938 ft | 496 kts | 330° |
| 2026-05-04 14:32 | 45.49141 | -0.19522 | 33949 ft | 496 kts | 330° |
| 2026-05-04 14:32 | 45.55372 | -0.23814 | 33957 ft | 496 kts | 330° |
| 2026-05-04 14:33 | 45.61566 | -0.28098 | 33963 ft | 496 kts | 330° |
| 2026-05-04 14:33 | 45.67541 | -0.32928 | 33956 ft | 488 kts | 317° |
| 2026-05-04 14:34 | 45.72857 | -0.38931 | 33940 ft | 488 kts | 317° |
| 2026-05-04 14:34 | 45.78210 | -0.44953 | 33940 ft | 488 kts | 317° |
| 2026-05-04 14:35 | 45.83533 | -0.50965 | 33939 ft | 488 kts | 317° |
| 2026-05-04 14:35 | 45.88886 | -0.57035 | 33937 ft | 488 kts | 317° |
| 2026-05-04 14:36 | 45.94183 | -0.63064 | 33940 ft | 488 kts | 317° |
| 2026-05-04 14:36 | 45.99516 | -0.69146 | 33951 ft | 488 kts | 317° |
| 2026-05-04 14:37 | 46.04809 | -0.75188 | 33946 ft | 488 kts | 317° |
| 2026-05-04 14:37 | 46.10107 | -0.81261 | 33976 ft | 488 kts | 317° |
| 2026-05-04 14:38 | 46.15440 | -0.87388 | 33960 ft | 489 kts | 317° |
| 2026-05-04 14:38 | 46.20769 | -0.93472 | 33965 ft | 490 kts | 321° |
| 2026-05-04 14:39 | 46.26690 | -0.98407 | 33967 ft | 494 kts | 328° |
| 2026-05-04 14:39 | 46.32744 | -1.03145 | 33961 ft | 494 kts | 328° |
| 2026-05-04 14:40 | 46.41803 | -1.10281 | 33968 ft | 495 kts | 328° |
| 2026-05-04 14:40 | 46.47853 | -1.15078 | 33961 ft | 494 kts | 328° |
| 2026-05-04 14:41 | 46.53890 | -1.19869 | 33965 ft | 494 kts | 328° |
| 2026-05-04 14:42 | 46.65917 | -1.29446 | 34002 ft | 492 kts | 329° |
| 2026-05-04 14:42 | 46.71920 | -1.34243 | 33996 ft | 491 kts | 329° |
| 2026-05-04 14:43 | 46.77880 | -1.39025 | 33991 ft | 490 kts | 329° |
| 2026-05-04 14:43 | 46.83880 | -1.43843 | 33983 ft | 490 kts | 329° |
| 2026-05-04 14:44 | 46.89813 | -1.48621 | 33976 ft | 490 kts | 329° |
| 2026-05-04 14:44 | 46.95805 | -1.53460 | 33969 ft | 490 kts | 329° |
| 2026-05-04 14:45 | 47.01769 | -1.58303 | 33958 ft | 490 kts | 329° |
| 2026-05-04 14:45 | 47.07701 | -1.63118 | 33952 ft | 490 kts | 329° |
| 2026-05-04 14:46 | 47.13667 | -1.67964 | 33989 ft | 490 kts | 329° |
| 2026-05-04 14:46 | 47.19638 | -1.72841 | 33973 ft | 490 kts | 329° |
| 2026-05-04 14:47 | 47.25616 | -1.77735 | 33958 ft | 492 kts | 329° |
| 2026-05-04 14:47 | 47.31563 | -1.82612 | 33953 ft | 492 kts | 329° |
| 2026-05-04 14:48 | 47.37551 | -1.87544 | 33958 ft | 493 kts | 329° |
| 2026-05-04 14:48 | 47.43561 | -1.92496 | 33955 ft | 494 kts | 329° |
| 2026-05-04 14:49 | 47.49573 | -1.97456 | 33957 ft | 494 kts | 329° |
| 2026-05-04 14:49 | 47.55552 | -2.02416 | 33955 ft | 494 kts | 329° |
| 2026-05-04 14:50 | 47.61565 | -2.07414 | 33954 ft | 494 kts | 329° |
| 2026-05-04 14:50 | 47.67571 | -2.12416 | 33977 ft | 493 kts | 329° |
| 2026-05-04 14:51 | 47.73515 | -2.17382 | 33978 ft | 492 kts | 329° |
| 2026-05-04 14:51 | 47.79487 | -2.22387 | 33979 ft | 492 kts | 329° |
| 2026-05-04 14:52 | 47.85465 | -2.27415 | 33977 ft | 491 kts | 329° |
| 2026-05-04 14:52 | 47.91377 | -2.32405 | 33975 ft | 490 kts | 329° |
| 2026-05-04 14:53 | 47.97317 | -2.37417 | 33976 ft | 489 kts | 329° |
| 2026-05-04 14:53 | 48.03219 | -2.42402 | 33978 ft | 489 kts | 329° |
| 2026-05-04 14:54 | 48.09163 | -2.47451 | 33974 ft | 489 kts | 329° |
| 2026-05-04 14:54 | 48.15049 | -2.52466 | 33970 ft | 489 kts | 329° |
| 2026-05-04 14:55 | 48.20976 | -2.57543 | 33991 ft | 489 kts | 329° |
| 2026-05-04 14:55 | 48.26896 | -2.62605 | 33994 ft | 489 kts | 329° |
| 2026-05-04 14:56 | 48.32799 | -2.67656 | 33994 ft | 487 kts | 329° |
| 2026-05-04 14:56 | 48.38683 | -2.72720 | 33997 ft | 487 kts | 329° |
| 2026-05-04 14:57 | 48.44525 | -2.77772 | 33992 ft | 487 kts | 329° |
| 2026-05-04 14:57 | 48.50398 | -2.82858 | 33996 ft | 487 kts | 329° |
| 2026-05-04 14:58 | 48.56263 | -2.87941 | 34009 ft | 486 kts | 329° |
| 2026-05-04 14:58 | 48.62138 | -2.93053 | 34009 ft | 486 kts | 329° |
| 2026-05-04 14:59 | 48.68001 | -2.98166 | 34006 ft | 487 kts | 329° |
| 2026-05-04 15:00 | 48.76787 | -3.05851 | 34023 ft | 487 kts | 329° |
| 2026-05-04 15:00 | 48.82656 | -3.10998 | 34018 ft | 486 kts | 329° |
| 2026-05-04 15:01 | 48.91452 | -3.18752 | 34012 ft | 486 kts | 329° |
| 2026-05-04 15:01 | 48.97272 | -3.23896 | 34010 ft | 486 kts | 329° |
| 2026-05-04 15:02 | 49.03135 | -3.29099 | 34010 ft | 486 kts | 329° |
| 2026-05-04 15:02 | 49.08974 | -3.34293 | 34005 ft | 485 kts | 329° |
| 2026-05-04 15:03 | 49.14776 | -3.39469 | 33998 ft | 485 kts | 329° |
| 2026-05-04 15:03 | 49.20625 | -3.44703 | 33997 ft | 485 kts | 329° |
| 2026-05-04 15:04 | 49.26434 | -3.49911 | 33995 ft | 485 kts | 328° |
| 2026-05-04 15:04 | 49.32314 | -3.55025 | 33992 ft | 486 kts | 335° |
| 2026-05-04 15:05 | 49.38633 | -3.58748 | 34019 ft | 486 kts | 339° |
| 2026-05-04 15:05 | 49.44974 | -3.62350 | 34019 ft | 486 kts | 339° |
| 2026-05-04 15:06 | 49.51282 | -3.65954 | 34016 ft | 485 kts | 339° |
| 2026-05-04 15:07 | 49.60770 | -3.71415 | 34006 ft | 485 kts | 339° |